Time;durP1;ratioP1;P1;durP2;ratioP2;P2;SDS_P1;SDS_P2;PMS_P1;PMS_P2;Temp;Humidity;BMP_temperature;BMP_pressure;BME280_temperature;BME280_humidity;BME280_pressure;Samples;Min_cycle;Max_cycle;Signal;HPM_P1;HPM_P2
2023/04/29 00:02:00;;;;;;;13.70;11.80;;;;;;;7.29;69.30;99620.81;5037071;28;20419;-71
2023/04/29 00:04:25;;;;;;;18.88;12.20;;;;;;;7.10;70.24;99604.22;5033963;28;20032;-71
2023/04/29 00:06:51;;;;;;;16.45;12.90;;;;;;;7.48;69.61;99611.50;5032962;28;20025;-71
2023/04/29 00:09:16;;;;;;;17.17;12.40;;;;;;;7.83;68.71;99603.50;5031481;28;20040;-71
2023/04/29 00:11:42;;;;;;;15.35;12.40;;;;;;;8.21;66.59;99602.34;5033324;28;20492;-71
2023/04/29 00:14:07;;;;;;;21.33;12.30;;;;;;;8.09;66.39;99602.94;5033417;28;20033;-71
2023/04/29 00:16:33;;;;;;;17.30;12.68;;;;;;;7.82;67.82;99601.84;5035439;28;20086;-71
2023/04/29 00:18:58;;;;;;;16.92;13.68;;;;;;;8.34;66.63;99601.47;5047573;28;20033;-71
2023/04/29 00:21:26;;;;;;;16.25;12.20;;;;;;;8.52;65.83;99613.59;5032649;28;20036;-71
2023/04/29 00:23:51;;;;;;;17.42;13.40;;;;;;;8.64;65.17;99612.19;5047754;28;20108;-71
2023/04/29 00:26:16;;;;;;;16.88;11.18;;;;;;;8.84;64.78;99606.09;5035285;28;20041;-71
2023/04/29 00:28:42;;;;;;;18.17;12.93;;;;;;;8.87;64.21;99609.38;5039443;28;20186;-71
2023/04/29 00:31:07;;;;;;;16.27;11.43;;;;;;;8.83;63.09;99604.44;5032441;28;20033;-70
2023/04/29 00:33:33;;;;;;;15.98;11.77;;;;;;;8.59;63.54;99604.78;5032148;28;20574;-71
2023/04/29 00:35:58;;;;;;;16.83;12.60;;;;;;;8.15;64.96;99602.50;5033489;28;20026;-71
2023/04/29 00:38:24;;;;;;;20.30;12.48;;;;;;;7.79;66.04;99616.41;5032729;28;20025;-71
2023/04/29 00:40:50;;;;;;;21.75;14.43;;;;;;;7.69;66.65;99615.50;5032082;28;20095;-71
2023/04/29 00:43:15;;;;;;;19.77;13.82;;;;;;;7.24;68.98;99621.72;5032394;28;20049;-72
2023/04/29 00:45:41;;;;;;;20.02;13.68;;;;;;;7.53;67.94;99617.78;5032175;28;20029;-71
2023/04/29 00:48:06;;;;;;;21.40;13.55;;;;;;;7.71;67.71;99627.13;5038993;28;20017;-71
2023/04/29 00:50:32;;;;;;;23.77;14.32;;;;;;;7.41;68.65;99615.53;5034144;28;20045;-71
2023/04/29 00:52:59;;;;;;;22.70;15.20;;;;;;;7.60;68.52;99628.50;5032467;28;20029;-71
2023/04/29 00:55:25;;;;;;;22.63;15.48;;;;;;;7.80;68.43;99623.63;5042113;28;20021;-71
2023/04/29 00:57:51;;;;;;;20.85;14.88;;;;;;;7.43;68.93;99627.19;5033017;28;20109;-70
2023/04/29 01:00:17;;;;;;;27.35;16.15;;;;;;;7.39;69.48;99626.16;5039315;28;20021;-71
2023/04/29 01:02:44;;;;;;;22.73;14.82;;;;;;;6.93;70.61;99616.75;5035848;28;20083;-71
2023/04/29 01:05:10;;;;;;;22.92;15.10;;;;;;;6.74;71.09;99611.25;5031630;28;20111;-71
2023/04/29 01:08:16;;;;;;;17.58;13.85;;;;;;;7.09;70.08;99617.28;5031752;28;20060;-71
2023/04/29 01:10:57;;;;;;;18.65;14.10;;;;;;;7.31;68.88;99618.53;5030883;28;20059;-70
2023/04/29 01:13:32;;;;;;;22.27;15.30;;;;;;;7.11;69.59;99620.56;5032022;28;20033;-71
2023/04/29 01:16:03;;;;;;;17.88;13.20;;;;;;;7.36;68.46;99615.66;5043403;28;20056;-70
2023/04/29 01:18:33;;;;;;;20.50;13.27;;;;;;;7.20;68.71;99615.13;5031043;28;20033;-71
2023/04/29 01:20:59;;;;;;;21.23;15.05;;;;;;;7.31;68.90;99612.97;5031848;28;20063;-71
2023/04/29 01:23:26;;;;;;;20.00;14.30;;;;;;;7.58;68.37;99619.63;5033682;28;20124;-70
2023/04/29 01:25:51;;;;;;;22.13;14.10;;;;;;;7.64;67.46;99604.47;5037667;28;20037;-71
2023/04/29 01:28:43;;;;;;;15.95;12.77;;;;;;;7.76;66.36;99614.25;5031710;28;20021;-70
2023/04/29 01:31:21;;;;;;;21.55;12.93;;;;;;;7.80;66.33;99601.34;5031714;28;20048;-71
2023/04/29 01:33:58;;;;;;;20.52;12.88;;;;;;;7.74;66.38;99603.41;5033175;28;20071;-70
2023/04/29 01:36:42;;;;;;;18.80;13.30;;;;;;;7.87;66.16;99602.56;5031776;28;20437;-71
2023/04/29 01:39:15;;;;;;;18.05;13.23;;;;;;;7.86;66.10;99603.69;5031725;28;20033;-71
2023/04/29 01:41:59;;;;;;;23.63;14.45;;;;;;;7.95;65.79;99592.63;5034495;28;20075;-71
2023/04/29 01:44:28;;;;;;;19.15;13.35;;;;;;;7.88;66.20;99600.63;5031488;28;20045;-71
2023/04/29 01:46:55;;;;;;;26.20;14.77;;;;;;;7.83;66.84;99589.56;5031980;28;20026;-71
2023/04/29 01:49:25;;;;;;;25.52;15.63;;;;;;;7.89;67.06;99593.91;5045456;28;20420;-71
2023/04/29 01:51:51;;;;;;;25.37;14.47;;;;;;;7.90;67.11;99589.97;5031195;28;20500;-71
2023/04/29 01:54:16;;;;;;;24.23;16.27;;;;;;;7.81;66.45;99575.97;5035777;28;20123;-71
2023/04/29 01:56:43;;;;;;;33.17;18.30;;;;;;;7.43;68.05;99592.97;5042397;28;20108;-71
2023/04/29 01:59:08;;;;;;;30.77;20.38;;;;;;;6.92;69.82;99592.03;5030467;28;20032;-71
2023/04/29 02:01:34;;;;;;;35.25;20.45;;;;;;;6.58;71.23;99589.31;5041157;28;20025;-70
2023/04/29 02:03:59;;;;;;;39.50;24.02;;;;;;;6.47;72.00;99587.84;5031647;28;20108;-71
2023/04/29 02:06:25;;;;;;;40.75;24.58;;;;;;;6.40;72.46;99587.41;5044428;28;20559;-70
2023/04/29 02:08:51;;;;;;;46.13;27.92;;;;;;;5.88;74.75;99590.97;5031912;28;20025;-69
2023/04/29 02:11:16;;;;;;;74.35;36.35;;;;;;;5.59;76.30;99601.06;5033350;28;20029;-72
2023/04/29 02:13:42;;;;;;;69.55;35.13;;;;;;;5.71;76.94;99597.88;5031504;28;20098;-70
2023/04/29 02:16:09;;;;;;;46.22;23.17;;;;;;;5.37;77.54;99587.78;5030713;28;20067;-69
2023/04/29 02:18:35;;;;;;;31.85;19.42;;;;;;;5.09;79.13;99584.81;5031194;28;20539;-69
2023/04/29 02:21:01;;;;;;;25.00;15.48;;;;;;;5.08;78.51;99579.53;5030091;28;20172;-69
2023/04/29 02:23:26;;;;;;;19.95;13.98;;;;;;;4.90;80.52;99582.78;5034420;28;20048;-69
2023/04/29 02:25:51;;;;;;;23.75;14.57;;;;;;;5.05;80.19;99580.97;5032309;28;20492;-69
2023/04/29 02:28:17;;;;;;;21.13;14.70;;;;;;;4.93;80.71;99578.59;5031133;28;20099;-69
2023/04/29 02:30:42;;;;;;;18.55;14.30;;;;;;;4.86;81.13;99581.75;5045338;28;20018;-69
2023/04/29 02:33:08;;;;;;;19.55;14.63;;;;;;;5.02;79.87;99587.09;5031014;28;20025;-69
2023/04/29 02:35:33;;;;;;;21.67;15.30;;;;;;;4.99;79.83;99577.41;5030336;28;20033;-69
2023/04/29 02:37:59;;;;;;;20.85;15.82;;;;;;;4.90;81.07;99579.22;5036462;28;20017;-69
2023/04/29 02:40:25;;;;;;;22.10;15.23;;;;;;;5.00;80.59;99578.25;5044573;28;20025;-69
2023/04/29 02:42:51;;;;;;;23.48;15.02;;;;;;;4.97;80.93;99582.44;5041634;28;20116;-69
2023/04/29 02:45:17;;;;;;;20.67;14.40;;;;;;;4.61;82.86;99582.81;5043624;28;20120;-69
2023/04/29 02:47:43;;;;;;;24.52;15.27;;;;;;;4.39;83.66;99581.34;5031155;28;20116;-68
2023/04/29 02:50:09;;;;;;;19.50;15.20;;;;;;;4.48;83.54;99579.63;5045975;28;20044;-69
2023/04/29 02:52:34;;;;;;;23.92;14.98;;;;;;;4.88;82.39;99579.50;5034282;28;20860;-69
2023/04/29 02:55:00;;;;;;;19.08;14.50;;;;;;;4.77;79.75;99589.03;5034211;28;20040;-68
2023/04/29 02:57:25;;;;;;;20.20;14.45;;;;;;;4.59;80.50;99585.06;5035693;28;20033;-68
2023/04/29 02:59:51;;;;;;;19.42;13.98;;;;;;;4.54;81.09;99587.91;5037269;28;20419;-68
2023/04/29 03:02:17;;;;;;;17.70;13.18;;;;;;;4.61;79.53;99594.75;5033015;28;20036;-69
2023/04/29 03:04:42;;;;;;;21.17;14.93;;;;;;;4.85;79.48;99585.63;5034668;28;20040;-68
2023/04/29 03:07:07;;;;;;;23.02;14.50;;;;;;;5.00;78.65;99586.56;5047861;28;20033;-69
2023/04/29 03:09:33;;;;;;;17.70;12.68;;;;;;;5.28;77.19;99595.09;5040250;28;20158;-69
2023/04/29 03:11:58;;;;;;;25.38;14.07;;;;;;;5.13;77.54;99588.63;5039322;28;20037;-69
2023/04/29 03:14:24;;;;;;;20.27;14.10;;;;;;;5.11;77.79;99582.56;5033539;28;20084;-69
2023/04/29 03:16:49;;;;;;;29.38;14.95;;;;;;;5.15;77.41;99583.59;5034698;28;20030;-69
2023/04/29 03:19:15;;;;;;;21.25;14.77;;;;;;;5.15;77.79;99586.38;5034429;28;20030;-69
2023/04/29 03:21:41;;;;;;;21.58;15.50;;;;;;;5.13;78.50;99591.41;5037037;28;20029;-68
2023/04/29 03:24:06;;;;;;;19.73;14.35;;;;;;;5.23;77.83;99600.72;5036169;28;20029;-69
2023/04/29 03:26:32;;;;;;;21.98;14.25;;;;;;;5.18;77.18;99596.88;5044306;28;20032;-69
2023/04/29 03:28:57;;;;;;;18.98;14.23;;;;;;;5.43;77.14;99602.41;5040187;28;20036;-69
2023/04/29 03:31:24;;;;;;;24.67;13.70;;;;;;;5.72;76.09;99590.34;5035152;28;20036;-69
2023/04/29 03:33:52;;;;;;;18.90;12.75;;;;;;;5.77;75.98;99601.41;5036491;28;20033;-69
2023/04/29 03:36:17;;;;;;;21.13;15.25;;;;;;;5.84;75.04;99601.03;5044468;28;20029;-69
2023/04/29 03:38:43;;;;;;;21.58;15.52;;;;;;;5.88;75.44;99597.34;5033913;28;20506;-69
2023/04/29 03:41:09;;;;;;;19.70;13.75;;;;;;;5.89;75.32;99604.56;5033336;28;20038;-68
2023/04/29 03:43:34;;;;;;;22.80;14.10;;;;;;;5.84;75.79;99601.03;5037880;28;20079;-68
2023/04/29 03:46:00;;;;;;;19.92;15.75;;;;;;;5.45;77.44;99617.66;5036371;28;20472;-69
2023/04/29 03:48:25;;;;;;;21.98;16.20;;;;;;;5.33;78.85;99625.56;5035432;28;20028;-69
2023/04/29 03:50:51;;;;;;;29.80;17.80;;;;;;;5.10;79.91;99622.50;5047434;28;20029;-69
2023/04/29 03:53:17;;;;;;;21.73;16.67;;;;;;;5.30;79.21;99626.13;5044837;28;20108;-70
2023/04/29 03:55:43;;;;;;;23.60;17.55;;;;;;;5.08;79.43;99629.44;5034972;28;20090;-69
2023/04/29 03:58:09;;;;;;;30.15;17.95;;;;;;;5.09;79.52;99631.94;5033837;28;20026;-68
2023/04/29 04:00:34;;;;;;;23.48;17.05;;;;;;;5.09;78.99;99628.34;5035726;28;20029;-68
2023/04/29 04:03:00;;;;;;;31.95;17.10;;;;;;;5.02;79.00;99637.84;5034065;28;20028;-69
2023/04/29 04:05:25;;;;;;;24.77;18.17;;;;;;;4.95;79.77;99642.91;5032875;28;20032;-68
2023/04/29 04:07:51;;;;;;;27.27;17.42;;;;;;;4.85;80.47;99638.28;5033262;28;20112;-69
2023/04/29 04:10:17;;;;;;;22.05;15.40;;;;;;;4.89;80.96;99639.34;5040286;28;20511;-69
2023/04/29 04:12:43;;;;;;;24.45;15.63;;;;;;;4.84;81.58;99647.72;5033288;28;20025;-69
2023/04/29 04:15:09;;;;;;;24.60;15.65;;;;;;;4.86;81.96;99651.03;5033729;28;20029;-69
2023/04/29 04:17:34;;;;;;;24.52;14.85;;;;;;;5.15;81.56;99649.34;5031652;28;20075;-69
2023/04/29 04:20:00;;;;;;;18.95;13.50;;;;;;;5.32;80.41;99649.69;5050658;28;20021;-69
2023/04/29 04:22:25;;;;;;;21.35;14.38;;;;;;;5.65;79.90;99639.88;5041230;28;20493;-70
2023/04/29 04:24:53;;;;;;;23.77;13.73;;;;;;;5.57;79.29;99635.81;5041267;28;20167;-69
2023/04/29 04:27:18;;;;;;;18.23;12.68;;;;;;;5.84;78.92;99629.59;5041770;28;20051;-69
2023/04/29 04:29:44;;;;;;;19.17;12.05;;;;;;;6.01;78.09;99623.56;5051979;28;20428;-68
2023/04/29 04:32:09;;;;;;;18.15;13.68;;;;;;;6.28;77.17;99630.38;5037382;28;20370;-69
2023/04/29 04:34:35;;;;;;;20.30;12.32;;;;;;;6.39;76.30;99621.88;5043077;28;20021;-69
2023/04/29 04:37:01;;;;;;;24.80;12.73;;;;;;;6.61;76.10;99640.69;5061622;28;20021;-68
2023/04/29 04:39:27;;;;;;;22.23;14.45;;;;;;;6.36;76.08;99637.22;5037112;28;20030;-71
2023/04/29 04:41:52;;;;;;;19.42;14.73;;;;;;;6.31;77.60;99643.66;5040726;28;20040;-71
2023/04/29 04:44:17;;;;;;;22.05;13.40;;;;;;;6.17;78.23;99642.78;5033117;28;20051;-71
2023/04/29 04:46:43;;;;;;;16.70;12.30;;;;;;;5.98;79.17;99640.78;5035603;28;20046;-71
2023/04/29 04:49:08;;;;;;;17.60;12.40;;;;;;;6.09;78.45;99654.56;5030156;28;20060;-72
2023/04/29 04:51:34;;;;;;;21.73;12.38;;;;;;;5.84;79.46;99662.09;5035608;28;20048;-71
2023/04/29 04:53:59;;;;;;;23.27;14.27;;;;;;;5.83;79.62;99655.72;5050337;28;20024;-71
2023/04/29 04:56:25;;;;;;;23.05;14.57;;;;;;;6.03;79.05;99654.66;5037882;28;20393;-71
2023/04/29 04:58:50;;;;;;;22.38;15.82;;;;;;;6.14;78.60;99657.25;5037380;28;20017;-72
2023/04/29 05:01:16;;;;;;;31.25;17.10;;;;;;;6.09;78.93;99651.78;5031673;28;20025;-70
2023/04/29 05:03:41;;;;;;;27.80;15.20;;;;;;;6.16;78.34;99653.06;5032267;28;20037;-69
2023/04/29 05:06:07;;;;;;;19.83;13.00;;;;;;;6.22;78.10;99651.03;5045517;28;20460;-70
2023/04/29 05:08:32;;;;;;;20.70;12.93;;;;;;;6.43;77.00;99653.50;5041969;28;20542;-71
2023/04/29 05:10:57;;;;;;;15.73;11.68;;;;;;;6.47;77.30;99651.75;5033804;28;20033;-72
2023/04/29 05:13:24;;;;;;;28.15;13.93;;;;;;;6.69;76.66;99653.06;5036675;28;20511;-71
2023/04/29 05:15:50;;;;;;;17.83;12.95;;;;;;;6.95;75.89;99649.81;5029199;28;20400;-73
2023/04/29 05:18:16;;;;;;;21.42;12.25;;;;;;;7.01;74.83;99635.50;5029206;28;20091;-71
2023/04/29 05:20:41;;;;;;;17.70;11.25;;;;;;;7.11;75.07;99631.69;5031358;28;20087;-71
2023/04/29 05:23:07;;;;;;;27.33;20.85;;;;;;;7.39;73.77;99631.72;5030133;28;20029;-72
2023/04/29 05:25:33;;;;;;;34.78;26.73;;;;;;;7.59;72.48;99635.19;5030959;28;20029;-70
2023/04/29 05:27:58;;;;;;;35.85;23.58;;;;;;;7.96;70.93;99619.38;5033087;28;20072;-72
2023/04/29 05:30:24;;;;;;;26.98;21.52;;;;;;;8.04;71.25;99631.72;5036718;28;20032;-73
2023/04/29 05:32:50;;;;;;;25.23;17.67;;;;;;;8.33;70.02;99630.47;5030729;28;20031;-67
2023/04/29 05:35:15;;;;;;;25.10;17.95;;;;;;;8.66;67.97;99621.06;5047627;28;20094;-71
2023/04/29 05:37:41;;;;;;;25.25;20.33;;;;;;;8.40;68.12;99627.25;5050309;28;20461;-71
2023/04/29 05:40:07;;;;;;;34.08;22.60;;;;;;;8.84;68.67;99625.59;5031966;28;20057;-71
2023/04/29 05:42:32;;;;;;;32.55;22.95;;;;;;;8.95;67.78;99617.78;5039374;28;20416;-71
2023/04/29 05:44:58;;;;;;;29.45;18.00;;;;;;;8.76;68.67;99614.41;5037682;28;20041;-72
2023/04/29 05:47:23;;;;;;;21.50;15.23;;;;;;;8.37;70.13;99617.56;5033158;28;20326;-72
2023/04/29 05:49:49;;;;;;;32.40;16.50;;;;;;;8.13;71.73;99615.09;5032971;28;20036;-72
2023/04/29 05:52:14;;;;;;;29.13;15.10;;;;;;;8.31;70.82;99618.84;5048047;28;20055;-71
2023/04/29 05:54:40;;;;;;;16.08;12.05;;;;;;;8.16;71.75;99611.66;5035957;28;20492;-72
2023/04/29 05:57:06;;;;;;;21.25;16.00;;;;;;;8.26;71.28;99617.00;5029943;28;20021;-72
2023/04/29 05:59:32;;;;;;;17.23;12.90;;;;;;;7.96;72.89;99611.03;5030944;28;20025;-71
2023/04/29 06:01:59;;;;;;;24.40;11.07;;;;;;;8.17;73.20;99612.50;5041587;28;20557;-75
2023/04/29 06:04:25;;;;;;;17.90;10.82;;;;;;;7.89;72.16;99618.97;5049388;28;20119;-72
2023/04/29 06:06:51;;;;;;;15.85;9.55;;;;;;;7.95;72.24;99616.88;5039799;28;20033;-72
2023/04/29 06:09:17;;;;;;;19.52;8.68;;;;;;;7.94;71.15;99607.69;5033984;28;20075;-75
2023/04/29 06:11:43;;;;;;;19.98;9.65;;;;;;;7.77;72.61;99610.34;5045501;28;20033;-71
2023/04/29 06:14:09;;;;;;;19.10;9.80;;;;;;;7.97;72.80;99612.66;5032333;28;20029;-72
2023/04/29 06:16:35;;;;;;;18.95;11.00;;;;;;;7.90;72.22;99605.84;5029541;28;20029;-68
2023/04/29 06:19:01;;;;;;;15.65;9.23;;;;;;;8.18;70.61;99606.59;5030858;28;20112;-73
2023/04/29 06:21:27;;;;;;;17.95;8.45;;;;;;;8.66;68.23;99594.00;5031010;28;20432;-72
2023/04/29 06:23:53;;;;;;;15.80;9.05;;;;;;;9.10;66.66;99607.34;5041210;28;20049;-73
2023/04/29 06:26:19;;;;;;;22.33;9.90;;;;;;;9.67;66.39;99603.75;5038282;28;20037;-71
2023/04/29 06:28:45;;;;;;;11.95;8.48;;;;;;;9.50;65.42;99604.53;5034339;28;20029;-71
2023/04/29 06:31:11;;;;;;;17.65;9.93;;;;;;;9.93;64.33;99600.16;5034651;28;20063;-69
2023/04/29 06:33:36;;;;;;;11.77;8.75;;;;;;;10.37;61.91;99594.56;5034757;28;20032;-69
2023/04/29 06:36:03;;;;;;;10.98;8.05;;;;;;;10.15;59.40;99589.97;5033597;28;20040;-68
2023/04/29 06:38:29;;;;;;;16.15;7.57;;;;;;;10.92;57.07;99594.16;5034923;28;20101;-68
2023/04/29 06:40:59;;;;;;;11.48;7.57;;;;;;;11.26;55.80;99585.94;5039265;28;20486;-68
2023/04/29 06:43:25;;;;;;;12.40;6.43;;;;;;;11.71;53.40;99576.94;5046944;28;20041;-68
2023/04/29 06:45:51;;;;;;;8.60;6.30;;;;;;;12.10;51.93;99584.44;5037730;28;20032;-71
2023/04/29 06:48:16;;;;;;;9.00;6.45;;;;;;;12.54;51.02;99570.00;5048583;28;20043;-71
2023/04/29 06:50:52;;;;;;;9.85;6.18;;;;;;;12.09;50.16;99569.59;5039162;28;20174;-73
2023/04/29 06:53:18;;;;;;;8.57;6.53;;;;;;;12.71;50.68;99558.59;5036024;28;20048;-73
2023/04/29 06:55:45;;;;;;;12.55;6.38;;;;;;;12.61;49.23;99559.03;5035095;28;20022;-70
2023/04/29 06:58:12;;;;;;;9.07;6.57;;;;;;;12.59;49.69;99556.56;5041027;28;20013;-68
2023/04/29 07:00:37;;;;;;;7.55;5.68;;;;;;;13.00;51.04;99548.34;5042228;28;20071;-69
2023/04/29 07:03:03;;;;;;;7.03;5.53;;;;;;;12.87;48.97;99560.72;5044295;28;20528;-67
2023/04/29 07:05:28;;;;;;;8.88;5.93;;;;;;;13.19;50.44;99561.81;5042227;28;20500;-69
2023/04/29 07:07:54;;;;;;;9.82;6.47;;;;;;;13.26;49.69;99564.03;5036454;28;20044;-68
2023/04/29 07:10:19;;;;;;;15.30;6.75;;;;;;;13.45;49.25;99557.88;5040797;28;20087;-69
2023/04/29 07:12:45;;;;;;;7.53;5.47;;;;;;;13.45;48.14;99552.25;5037212;28;20107;-67
2023/04/29 07:15:10;;;;;;;8.00;5.45;;;;;;;13.72;49.36;99565.91;5034166;28;20037;-68
2023/04/29 07:17:36;;;;;;;7.93;5.47;;;;;;;14.00;47.98;99559.53;5042107;28;20479;-67
2023/04/29 07:20:02;;;;;;;6.78;5.80;;;;;;;14.36;47.59;99549.31;5039995;28;20025;-67
2023/04/29 07:22:28;;;;;;;10.35;5.47;;;;;;;14.16;45.74;99551.13;5033522;28;20037;-71
2023/04/29 07:24:54;;;;;;;11.80;5.65;;;;;;;14.31;47.09;99553.19;5032996;28;20029;-71
2023/04/29 07:27:20;;;;;;;8.50;5.40;;;;;;;14.71;46.65;99551.44;5046341;28;20036;-72
2023/04/29 07:29:46;;;;;;;8.32;5.55;;;;;;;14.32;44.63;99546.38;5051959;28;20021;-71
2023/04/29 07:32:12;;;;;;;11.88;6.38;;;;;;;14.02;45.25;99543.91;5051931;28;20483;-71
2023/04/29 07:34:37;;;;;;;12.98;5.50;;;;;;;14.11;45.47;99549.38;5049812;28;20109;-72
2023/04/29 07:37:03;;;;;;;9.05;5.45;;;;;;;14.01;45.30;99544.28;5033848;28;20021;-72
2023/04/29 07:39:29;;;;;;;7.68;5.95;;;;;;;13.57;46.64;99539.34;5033514;28;20386;-67
2023/04/29 07:41:54;;;;;;;9.05;6.30;;;;;;;13.99;45.86;99544.63;5033142;28;20041;-68
2023/04/29 07:44:21;;;;;;;7.70;6.13;;;;;;;14.00;45.90;99535.03;5032883;28;20069;-68
2023/04/29 07:46:47;;;;;;;13.40;5.82;;;;;;;14.13;44.51;99546.22;5035076;28;20025;-67
2023/04/29 07:49:12;;;;;;;7.18;5.18;;;;;;;14.55;44.21;99539.34;5050145;28;20082;-68
2023/04/29 07:51:41;;;;;;;41.78;23.52;;;;;;;15.11;44.34;99540.44;5040963;28;20033;-71
2023/04/29 07:54:06;;;;;;;12.90;6.93;;;;;;;15.56;42.91;99544.69;5042288;28;20021;-68
2023/04/29 07:56:32;;;;;;;9.25;5.55;;;;;;;15.65;42.05;99532.41;5032712;28;20036;-72
2023/04/29 07:59:00;;;;;;;8.10;5.15;;;;;;;15.02;41.34;99532.97;5044608;28;20102;-70
2023/04/29 08:01:25;;;;;;;8.82;6.20;;;;;;;15.28;42.53;99537.22;5051256;28;20025;-69
2023/04/29 08:03:51;;;;;;;5.93;5.22;;;;;;;15.85;40.56;99525.63;5034103;28;20466;-69
2023/04/29 08:06:19;;;;;;;6.07;5.43;;;;;;;16.07;39.71;99531.75;5047315;28;20032;-68
2023/04/29 08:08:45;;;;;;;9.02;6.80;;;;;;;15.25;41.11;99534.31;5045077;28;20025;-69
2023/04/29 08:11:18;;;;;;;9.57;5.07;;;;;;;15.00;41.76;99526.88;5037679;28;20044;-69
2023/04/29 08:13:44;;;;;;;15.25;5.65;;;;;;;15.97;41.97;99521.88;5040186;28;20025;-75
2023/04/29 08:16:10;;;;;;;10.30;6.45;;;;;;;16.59;40.57;99517.44;5036805;28;20060;-73
2023/04/29 08:18:36;;;;;;;7.47;5.50;;;;;;;17.00;39.04;99519.81;5042675;28;20025;-73
2023/04/29 08:21:02;;;;;;;8.50;4.45;;;;;;;15.92;38.78;99515.69;5034062;28;20098;-73
2023/04/29 08:23:28;;;;;;;13.00;5.43;;;;;;;16.67;39.09;99509.91;5038580;28;20024;-72
2023/04/29 08:25:54;;;;;;;7.97;4.80;;;;;;;17.07;37.04;99502.16;5032991;28;20094;-70
2023/04/29 08:28:23;;;;;;;10.82;4.70;;;;;;;17.04;37.14;99502.91;5046616;28;20026;-71
2023/04/29 08:30:49;;;;;;;9.65;5.13;;;;;;;17.11;36.92;99503.00;5033456;28;20025;-72
2023/04/29 08:33:15;;;;;;;10.63;5.70;;;;;;;17.21;37.30;99501.56;5033425;28;20026;-74
2023/04/29 08:35:41;;;;;;;7.80;5.00;;;;;;;17.66;36.16;99499.00;5033322;28;20044;-74
2023/04/29 08:38:08;;;;;;;7.43;4.70;;;;;;;17.87;36.15;99497.66;5032041;28;20086;-74
2023/04/29 08:40:35;;;;;;;7.13;4.60;;;;;;;17.81;35.06;99500.00;5031765;28;20116;-74
2023/04/29 08:43:03;;;;;;;9.35;4.90;;;;;;;18.15;34.89;99494.38;5032623;28;20041;-74
2023/04/29 08:45:31;;;;;;;14.23;4.88;;;;;;;18.55;35.05;99489.16;5037564;28;20025;-74
2023/04/29 08:47:57;;;;;;;5.68;4.65;;;;;;;16.78;36.58;99491.16;5052670;28;20025;-72
2023/04/29 08:50:23;;;;;;;6.57;4.65;;;;;;;16.56;38.76;99489.97;5052746;28;20021;-74
2023/04/29 08:52:50;;;;;;;12.55;5.03;;;;;;;16.21;38.16;99490.91;5052961;28;20115;-72
2023/04/29 08:55:15;;;;;;;5.65;4.85;;;;;;;16.08;37.46;99476.97;5053068;28;20472;-73
2023/04/29 08:57:43;;;;;;;5.72;4.03;;;;;;;16.23;38.13;99482.88;5044856;28;20036;-73
2023/04/29 09:00:09;;;;;;;9.15;6.03;;;;;;;16.30;37.73;99471.75;5031689;28;20025;-75
2023/04/29 09:02:42;;;;;;;8.93;4.80;;;;;;;16.72;37.05;99455.97;5031160;28;20116;-77
2023/04/29 09:05:11;;;;;;;6.53;4.45;;;;;;;16.95;36.71;99466.41;5031412;28;20108;-74
2023/04/29 09:07:40;;;;;;;9.55;5.65;;;;;;;17.68;36.32;99462.66;5032972;28;20021;-75
2023/04/29 09:10:07;;;;;;;7.27;5.37;;;;;;;17.57;35.81;99464.53;5032248;28;20083;-75
2023/04/29 09:12:33;;;;;;;5.00;4.50;;;;;;;18.10;35.19;99470.09;5032125;28;20804;-75
2023/04/29 09:14:58;;;;;;;12.88;5.22;;;;;;;18.27;34.09;99456.50;5031230;28;20031;-76
2023/04/29 09:17:43;;;;;;;7.57;5.45;;;;;;;18.54;34.96;99425.22;5032625;28;20429;-75
2023/04/29 09:20:21;;;;;;;6.82;4.68;;;;;;;18.19;34.36;99437.81;5031260;28;20029;-79
2023/04/29 09:22:47;;;;;;;8.13;4.65;;;;;;;17.30;34.96;99427.81;5038027;28;20031;-77
2023/04/29 09:25:14;;;;;;;5.07;4.32;;;;;;;17.90;34.32;99438.28;5041937;28;20029;-77
2023/04/29 09:27:39;;;;;;;11.73;4.75;;;;;;;18.86;33.57;99427.53;5039130;28;20404;-80
2023/04/29 09:30:06;;;;;;;8.25;4.40;;;;;;;18.91;32.57;99412.97;5038227;28;20036;-77
2023/04/29 09:32:31;;;;;;;9.18;6.72;;;;;;;19.18;33.20;99420.47;5031158;28;20029;-74
2023/04/29 09:34:56;;;;;;;8.70;4.05;;;;;;;19.58;31.00;99413.00;5028536;28;20033;-73
2023/04/29 09:37:26;;;;;;;6.55;3.80;;;;;;;19.76;30.20;99409.44;5044330;28;20411;-74
2023/04/29 09:39:53;;;;;;;5.72;3.70;;;;;;;19.78;28.63;99407.00;5038110;28;20087;-75
2023/04/29 09:42:18;;;;;;;7.63;4.30;;;;;;;20.12;28.67;99403.91;5029627;28;20128;-75
2023/04/29 09:44:44;;;;;;;5.15;3.67;;;;;;;19.83;28.59;99403.75;5030273;28;20132;-73
2023/04/29 09:47:12;;;;;;;20.92;8.25;;;;;;;20.26;27.35;99397.41;5031465;28;20117;-73
2023/04/29 09:49:39;;;;;;;6.03;3.58;;;;;;;19.52;28.46;99393.91;5029751;28;20036;-73
2023/04/29 09:52:13;;;;;;;23.38;8.13;;;;;;;20.29;29.70;99385.28;5029734;28;20029;-74
2023/04/29 09:54:41;;;;;;;7.88;3.60;;;;;;;20.84;27.50;99377.56;5028734;28;20076;-75
2023/04/29 09:57:08;;;;;;;7.07;3.17;;;;;;;20.55;26.92;99380.41;5041653;28;20385;-78
2023/04/29 09:59:36;;;;;;;8.27;3.38;;;;;;;20.66;24.96;99383.25;5031674;28;20048;-73
2023/04/29 10:02:09;;;;;;;6.57;3.88;;;;;;;20.13;25.93;99376.31;5028923;28;20508;-75
2023/04/29 10:04:38;;;;;;;5.72;3.40;;;;;;;20.59;24.89;99375.53;5028237;28;20106;-77
2023/04/29 10:07:04;;;;;;;4.38;3.28;;;;;;;21.10;24.34;99361.28;5028492;28;20017;-75
2023/04/29 10:09:30;;;;;;;6.10;3.28;;;;;;;20.72;24.11;99377.97;5037590;28;20525;-73
2023/04/29 10:11:55;;;;;;;5.80;3.03;;;;;;;21.12;24.26;99356.03;5040465;28;20033;-74
2023/04/29 10:14:23;;;;;;;9.07;3.50;;;;;;;21.12;25.28;99361.72;5039831;28;20036;-77
2023/04/29 10:17:03;;;;;;;5.00;3.35;;;;;;;20.73;25.40;99357.69;5039548;28;20116;-78
2023/04/29 10:19:41;;;;;;;5.40;3.80;;;;;;;21.10;24.81;99357.63;5029849;28;20099;-73
2023/04/29 10:22:15;;;;;;;5.13;3.50;;;;;;;20.87;25.14;99353.22;5029458;28;20761;-74
2023/04/29 10:24:42;;;;;;;4.88;3.50;;;;;;;20.92;24.16;99343.47;5037133;28;20572;-75
2023/04/29 10:27:11;;;;;;;4.15;3.13;;;;;;;21.15;24.06;99345.84;5032288;28;20100;-74
2023/04/29 10:29:37;;;;;;;11.05;3.75;;;;;;;21.62;24.66;99336.31;5029489;28;20030;-75
2023/04/29 10:32:06;;;;;;;5.40;2.92;;;;;;;21.61;24.56;99338.38;5030225;28;20083;-72
2023/04/29 10:34:33;;;;;;;9.40;3.42;;;;;;;21.80;25.25;99336.25;5041629;28;20031;-75
2023/04/29 10:36:59;;;;;;;6.45;3.20;;;;;;;21.79;25.26;99328.94;5036492;28;20030;-76
2023/04/29 10:40:05;;;;;;;5.18;3.38;;;;;;;21.43;25.56;99327.84;5068338;28;20013;-77
2023/04/29 10:42:46;;;;;;;13.63;3.38;;;;;;;21.44;25.93;99325.84;5067061;28;20115;-76
2023/04/29 10:45:26;;;;;;;6.85;3.10;;;;;;;21.96;25.39;99328.03;5051303;28;20037;-76
2023/04/29 10:48:00;;;;;;;7.97;3.92;;;;;;;21.72;24.97;99321.25;5051204;28;20025;-77
2023/04/29 10:50:30;;;;;;;8.30;2.95;;;;;;;22.50;25.08;99315.44;5049986;28;20033;-77
2023/04/29 10:52:56;;;;;;;8.40;4.28;;;;;;;22.42;23.95;99310.97;5050718;28;20039;-76
2023/04/29 10:55:23;;;;;;;16.75;5.03;;;;;;;22.23;25.32;99312.38;5071005;28;20036;-77
2023/04/29 10:57:51;;;;;;;5.85;2.67;;;;;;;21.64;23.84;99299.72;5069952;28;20035;-75
2023/04/29 11:00:28;;;;;;;4.70;3.33;;;;;;;21.43;24.18;99302.25;5057263;28;20032;-76
2023/04/29 11:02:54;;;;;;;5.00;2.75;;;;;;;21.93;23.97;99297.53;5038111;28;20029;-76
2023/04/29 11:05:34;;;;;;;4.88;2.45;;;;;;;21.26;24.44;99297.47;5037589;28;20500;-77
2023/04/29 11:08:23;;;;;;;3.47;2.72;;;;;;;21.25;26.63;99290.16;5039337;28;20087;-77
2023/04/29 11:10:53;;;;;;;4.18;2.53;;;;;;;20.20;24.01;99279.78;5038507;28;20072;-77
2023/04/29 11:13:21;;;;;;;;;;;;;;;19.96;25.75;99285.06;5034608;28;20086;-77
2023/04/29 11:15:47;;;;;;;5.80;2.83;;;;;;;20.77;24.80;99284.59;5033664;28;19909;-77
2023/04/29 11:18:13;;;;;;;4.28;3.13;;;;;;;21.76;24.99;99278.53;5035140;28;20049;-77
2023/04/29 11:21:03;;;;;;;13.27;5.40;;;;;;;22.01;24.45;99278.34;5043104;28;20565;-76
2023/04/29 11:23:29;;;;;;;4.57;3.75;;;;;;;21.88;24.25;99276.00;5035420;28;20148;-76
2023/04/29 11:25:55;;;;;;;8.10;3.70;;;;;;;21.88;24.23;99278.84;5039247;28;20551;-75
2023/04/29 11:28:22;;;;;;;5.65;3.60;;;;;;;21.82;24.24;99272.00;5045065;28;20025;-76
2023/04/29 11:30:50;;;;;;;5.22;3.15;;;;;;;21.42;24.28;99275.03;5045774;28;20024;-76